sensor_id;sensor_type;location;lat;lon;timestamp;temperature;humidity
1453;DHT22;720;47.738;7.998;2022-11-12T00:00:52;6.70;99.90
1453;DHT22;720;47.738;7.998;2022-11-12T00:03:18;7.10;99.90
1453;DHT22;720;47.738;7.998;2022-11-12T00:05:44;6.70;99.90
1453;DHT22;720;47.738;7.998;2022-11-12T00:08:10;6.80;99.90
1453;DHT22;720;47.738;7.998;2022-11-12T00:10:36;6.70;99.90
1453;DHT22;720;47.738;7.998;2022-11-12T00:13:01;6.90;99.90
1453;DHT22;720;47.738;7.998;2022-11-12T00:15:27;6.60;99.90
1453;DHT22;720;47.738;7.998;2022-11-12T00:17:53;6.60;99.90
1453;DHT22;720;47.738;7.998;2022-11-12T00:20:19;6.50;99.90
1453;DHT22;720;47.738;7.998;2022-11-12T00:22:44;6.40;99.90
1453;DHT22;720;47.738;7.998;2022-11-12T00:25:10;6.50;99.90
1453;DHT22;720;47.738;7.998;2022-11-12T00:27:36;6.70;99.90
1453;DHT22;720;47.738;7.998;2022-11-12T00:30:03;6.20;99.90
1453;DHT22;720;47.738;7.998;2022-11-12T00:32:29;6.40;99.90
1453;DHT22;720;47.738;7.998;2022-11-12T00:34:55;6.40;99.90
1453;DHT22;720;47.738;7.998;2022-11-12T00:37:20;6.40;99.90
1453;DHT22;720;47.738;7.998;2022-11-12T00:39:47;6.40;99.90
1453;DHT22;720;47.738;7.998;2022-11-12T00:42:13;6.50;99.90
1453;DHT22;720;47.738;7.998;2022-11-12T00:44:39;6.60;99.90
1453;DHT22;720;47.738;7.998;2022-11-12T00:47:04;7.10;99.90
1453;DHT22;720;47.738;7.998;2022-11-12T00:49:30;6.60;99.90
1453;DHT22;720;47.738;7.998;2022-11-12T00:51:56;6.70;99.90
1453;DHT22;720;47.738;7.998;2022-11-12T00:54:21;6.30;99.90
1453;DHT22;720;47.738;7.998;2022-11-12T00:56:47;6.50;99.90
1453;DHT22;720;47.738;7.998;2022-11-12T00:59:13;6.50;99.90
1453;DHT22;720;47.738;7.998;2022-11-12T01:01:39;6.50;99.90
1453;DHT22;720;47.738;7.998;2022-11-12T01:04:06;6.50;99.90
1453;DHT22;720;47.738;7.998;2022-11-12T01:06:31;6.50;99.90
1453;DHT22;720;47.738;7.998;2022-11-12T01:08:57;6.00;99.90
1453;DHT22;720;47.738;7.998;2022-11-12T01:11:25;6.50;99.90
1453;DHT22;720;47.738;7.998;2022-11-12T01:14:00;6.40;99.90
1453;DHT22;720;47.738;7.998;2022-11-12T01:16:29;6.60;99.90
1453;DHT22;720;47.738;7.998;2022-11-12T01:19:00;6.40;99.90
1453;DHT22;720;47.738;7.998;2022-11-12T01:21:29;6.30;99.90
1453;DHT22;720;47.738;7.998;2022-11-12T01:23:56;6.30;99.90
1453;DHT22;720;47.738;7.998;2022-11-12T01:26:23;6.40;99.90
1453;DHT22;720;47.738;7.998;2022-11-12T01:28:49;6.40;99.90
1453;DHT22;720;47.738;7.998;2022-11-12T01:31:22;6.50;99.90
1453;DHT22;720;47.738;7.998;2022-11-12T01:33:52;6.50;99.90
1453;DHT22;720;47.738;7.998;2022-11-12T01:36:18;6.40;99.90
1453;DHT22;720;47.738;7.998;2022-11-12T01:38:45;6.40;99.90
1453;DHT22;720;47.738;7.998;2022-11-12T01:41:14;6.30;99.90
1453;DHT22;720;47.738;7.998;2022-11-12T01:43:40;6.50;99.90
1453;DHT22;720;47.738;7.998;2022-11-12T01:46:32;6.50;99.90
1453;DHT22;720;47.738;7.998;2022-11-12T01:49:02;6.50;99.90
1453;DHT22;720;47.738;7.998;2022-11-12T01:51:34;6.90;99.90
1453;DHT22;720;47.738;7.998;2022-11-12T01:54:05;7.00;99.90
1453;DHT22;720;47.738;7.998;2022-11-12T01:56:33;6.60;99.90
1453;DHT22;720;47.738;7.998;2022-11-12T01:59:02;6.70;99.90
1453;DHT22;720;47.738;7.998;2022-11-12T02:01:29;6.20;99.90
1453;DHT22;720;47.738;7.998;2022-11-12T02:03:55;6.60;99.90
1453;DHT22;720;47.738;7.998;2022-11-12T02:06:22;7.00;99.90
1453;DHT22;720;47.738;7.998;2022-11-12T02:08:49;6.60;99.90
1453;DHT22;720;47.738;7.998;2022-11-12T02:11:17;6.60;99.90
1453;DHT22;720;47.738;7.998;2022-11-12T02:13:44;6.50;99.90
1453;DHT22;720;47.738;7.998;2022-11-12T02:16:40;6.40;99.90
1453;DHT22;720;47.738;7.998;2022-11-12T02:19:09;6.40;99.90
1453;DHT22;720;47.738;7.998;2022-11-12T02:21:35;6.50;99.90
1453;DHT22;720;47.738;7.998;2022-11-12T02:26:46;6.30;99.90
1453;DHT22;720;47.738;7.998;2022-11-12T02:29:13;6.30;99.90
1453;DHT22;720;47.738;7.998;2022-11-12T02:31:38;6.40;99.90
1453;DHT22;720;47.738;7.998;2022-11-12T02:34:04;6.40;99.90
1453;DHT22;720;47.738;7.998;2022-11-12T02:36:30;6.40;99.90
1453;DHT22;720;47.738;7.998;2022-11-12T02:38:56;6.40;99.90
1453;DHT22;720;47.738;7.998;2022-11-12T02:41:22;6.60;99.90
1453;DHT22;720;47.738;7.998;2022-11-12T02:43:47;6.60;99.90
1453;DHT22;720;47.738;7.998;2022-11-12T02:46:14;6.60;99.90
1453;DHT22;720;47.738;7.998;2022-11-12T02:48:39;6.50;99.90
1453;DHT22;720;47.738;7.998;2022-11-12T02:51:06;6.80;99.90
1453;DHT22;720;47.738;7.998;2022-11-12T02:53:31;6.50;99.90
1453;DHT22;720;47.738;7.998;2022-11-12T02:55:58;6.60;99.90
1453;DHT22;720;47.738;7.998;2022-11-12T02:58:24;6.60;99.90
1453;DHT22;720;47.738;7.998;2022-11-12T03:00:50;6.30;99.90
1453;DHT22;720;47.738;7.998;2022-11-12T03:03:16;6.40;99.90
1453;DHT22;720;47.738;7.998;2022-11-12T03:05:42;6.40;99.90
1453;DHT22;720;47.738;7.998;2022-11-12T03:08:08;6.50;99.90
1453;DHT22;720;47.738;7.998;2022-11-12T03:10:36;6.50;99.90
1453;DHT22;720;47.738;7.998;2022-11-12T03:13:02;6.60;99.90
1453;DHT22;720;47.738;7.998;2022-11-12T03:15:29;6.40;99.90
1453;DHT22;720;47.738;7.998;2022-11-12T03:17:57;6.40;99.90
1453;DHT22;720;47.738;7.998;2022-11-12T03:20:23;6.50;99.90
1453;DHT22;720;47.738;7.998;2022-11-12T03:23:06;6.40;99.90
1453;DHT22;720;47.738;7.998;2022-11-12T03:25:33;6.40;99.90
1453;DHT22;720;47.738;7.998;2022-11-12T03:28:02;6.50;99.90
1453;DHT22;720;47.738;7.998;2022-11-12T03:30:29;6.50;99.90
1453;DHT22;720;47.738;7.998;2022-11-12T03:32:56;6.50;99.90
1453;DHT22;720;47.738;7.998;2022-11-12T03:35:22;6.50;99.90
1453;DHT22;720;47.738;7.998;2022-11-12T03:37:48;6.50;99.90
1453;DHT22;720;47.738;7.998;2022-11-12T03:40:15;6.60;99.90
1453;DHT22;720;47.738;7.998;2022-11-12T03:42:49;6.60;99.90
1453;DHT22;720;47.738;7.998;2022-11-12T03:45:16;6.60;99.90
1453;DHT22;720;47.738;7.998;2022-11-12T03:47:43;6.50;99.90
1453;DHT22;720;47.738;7.998;2022-11-12T03:50:10;6.60;99.90
1453;DHT22;720;47.738;7.998;2022-11-12T03:52:37;6.50;99.90
1453;DHT22;720;47.738;7.998;2022-11-12T03:55:05;6.50;99.90
1453;DHT22;720;47.738;7.998;2022-11-12T03:57:34;6.50;99.90
1453;DHT22;720;47.738;7.998;2022-11-12T04:00:00;6.50;99.90
1453;DHT22;720;47.738;7.998;2022-11-12T04:02:25;6.40;99.90
1453;DHT22;720;47.738;7.998;2022-11-12T04:04:54;6.40;99.90
1453;DHT22;720;47.738;7.998;2022-11-12T04:07:38;6.30;99.90
1453;DHT22;720;47.738;7.998;2022-11-12T04:10:22;6.20;99.90
1453;DHT22;720;47.738;7.998;2022-11-12T04:12:48;6.30;99.90
1453;DHT22;720;47.738;7.998;2022-11-12T04:15:32;6.30;99.90
1453;DHT22;720;47.738;7.998;2022-11-12T04:17:57;6.30;99.90
1453;DHT22;720;47.738;7.998;2022-11-12T04:20:41;6.30;99.90
1453;DHT22;720;47.738;7.998;2022-11-12T04:23:25;6.40;99.90
1453;DHT22;720;47.738;7.998;2022-11-12T04:25:51;6.40;99.90
1453;DHT22;720;47.738;7.998;2022-11-12T04:28:35;6.40;99.90
1453;DHT22;720;47.738;7.998;2022-11-12T04:31:01;6.30;99.90
1453;DHT22;720;47.738;7.998;2022-11-12T04:33:26;6.20;99.90
1453;DHT22;720;47.738;7.998;2022-11-12T04:35:52;6.20;99.90
1453;DHT22;720;47.738;7.998;2022-11-12T04:38:17;6.00;99.90
1453;DHT22;720;47.738;7.998;2022-11-12T04:40:43;6.00;99.90
1453;DHT22;720;47.738;7.998;2022-11-12T04:43:27;6.10;99.90
1453;DHT22;720;47.738;7.998;2022-11-12T04:46:11;6.10;99.90
1453;DHT22;720;47.738;7.998;2022-11-12T04:48:37;6.20;99.90
1453;DHT22;720;47.738;7.998;2022-11-12T04:51:04;6.30;99.90
1453;DHT22;720;47.738;7.998;2022-11-12T04:53:50;6.30;99.90
1453;DHT22;720;47.738;7.998;2022-11-12T04:56:15;6.20;99.90
1453;DHT22;720;47.738;7.998;2022-11-12T04:58:41;6.30;99.90
1453;DHT22;720;47.738;7.998;2022-11-12T05:01:06;6.20;99.90
1453;DHT22;720;47.738;7.998;2022-11-12T05:03:32;6.20;99.90
1453;DHT22;720;47.738;7.998;2022-11-12T05:06:02;6.20;99.90
1453;DHT22;720;47.738;7.998;2022-11-12T05:08:28;6.10;99.90
1453;DHT22;720;47.738;7.998;2022-11-12T05:10:54;6.10;99.90
1453;DHT22;720;47.738;7.998;2022-11-12T05:13:19;6.40;99.90
1453;DHT22;720;47.738;7.998;2022-11-12T05:15:45;7.50;99.90
1453;DHT22;720;47.738;7.998;2022-11-12T05:18:10;8.60;99.90
1453;DHT22;720;47.738;7.998;2022-11-12T05:20:36;9.60;99.90
1453;DHT22;720;47.738;7.998;2022-11-12T05:23:02;10.40;99.90
1453;DHT22;720;47.738;7.998;2022-11-12T05:25:27;11.00;99.90
1453;DHT22;720;47.738;7.998;2022-11-12T05:27:53;11.50;99.90
1453;DHT22;720;47.738;7.998;2022-11-12T05:30:18;11.90;99.90
1453;DHT22;720;47.738;7.998;2022-11-12T05:32:44;12.20;99.90
1453;DHT22;720;47.738;7.998;2022-11-12T05:35:10;12.50;98.90
1453;DHT22;720;47.738;7.998;2022-11-12T05:37:35;12.80;98.90
1453;DHT22;720;47.738;7.998;2022-11-12T05:40:01;13.00;98.20
1453;DHT22;720;47.738;7.998;2022-11-12T05:42:27;12.90;94.60
1453;DHT22;720;47.738;7.998;2022-11-12T05:44:52;12.30;91.90
1453;DHT22;720;47.738;7.998;2022-11-12T05:47:18;11.40;91.80
1453;DHT22;720;47.738;7.998;2022-11-12T05:49:43;10.60;91.90
1453;DHT22;720;47.738;7.998;2022-11-12T05:52:09;9.40;99.90
1453;DHT22;720;47.738;7.998;2022-11-12T05:54:35;8.70;99.90
1453;DHT22;720;47.738;7.998;2022-11-12T05:57:00;8.50;99.90
1453;DHT22;720;47.738;7.998;2022-11-12T05:59:26;8.40;95.60
1453;DHT22;720;47.738;7.998;2022-11-12T06:01:52;7.90;99.90
1453;DHT22;720;47.738;7.998;2022-11-12T06:04:17;7.80;97.10
1453;DHT22;720;47.738;7.998;2022-11-12T06:06:43;7.70;97.60
1453;DHT22;720;47.738;7.998;2022-11-12T06:09:09;7.50;98.00
1453;DHT22;720;47.738;7.998;2022-11-12T06:11:36;7.40;98.50
1453;DHT22;720;47.738;7.998;2022-11-12T06:14:02;7.30;99.30
1453;DHT22;720;47.738;7.998;2022-11-12T06:16:28;7.20;99.30
1453;DHT22;720;47.738;7.998;2022-11-12T06:18:54;7.10;99.50
1453;DHT22;720;47.738;7.998;2022-11-12T06:21:20;7.00;99.80
1453;DHT22;720;47.738;7.998;2022-11-12T06:23:56;6.90;99.90
1453;DHT22;720;47.738;7.998;2022-11-12T06:26:26;6.80;99.90
1453;DHT22;720;47.738;7.998;2022-11-12T06:28:53;6.80;99.90
1453;DHT22;720;47.738;7.998;2022-11-12T06:31:19;6.80;99.90
1453;DHT22;720;47.738;7.998;2022-11-12T06:33:45;6.90;99.90
1453;DHT22;720;47.738;7.998;2022-11-12T06:36:13;6.90;99.90
1453;DHT22;720;47.738;7.998;2022-11-12T06:38:40;6.80;99.90
1453;DHT22;720;47.738;7.998;2022-11-12T06:41:08;6.80;99.90
1453;DHT22;720;47.738;7.998;2022-11-12T06:43:34;6.80;99.90
1453;DHT22;720;47.738;7.998;2022-11-12T06:46:01;6.80;99.90
1453;DHT22;720;47.738;7.998;2022-11-12T06:48:28;6.90;99.90
1453;DHT22;720;47.738;7.998;2022-11-12T06:50:55;7.00;99.90
1453;DHT22;720;47.738;7.998;2022-11-12T06:53:22;7.10;99.90
1453;DHT22;720;47.738;7.998;2022-11-12T06:55:47;7.20;99.90
1453;DHT22;720;47.738;7.998;2022-11-12T06:58:13;7.20;99.90
1453;DHT22;720;47.738;7.998;2022-11-12T07:00:39;7.20;99.90
1453;DHT22;720;47.738;7.998;2022-11-12T07:03:08;7.30;99.90
1453;DHT22;720;47.738;7.998;2022-11-12T07:05:36;7.40;99.90
1453;DHT22;720;47.738;7.998;2022-11-12T07:08:05;7.40;99.90
1453;DHT22;720;47.738;7.998;2022-11-12T07:10:31;7.50;99.90
1453;DHT22;720;47.738;7.998;2022-11-12T07:12:57;7.60;99.90
1453;DHT22;720;47.738;7.998;2022-11-12T07:15:22;7.80;99.90
1453;DHT22;720;47.738;7.998;2022-11-12T07:17:48;7.80;99.90
1453;DHT22;720;47.738;7.998;2022-11-12T07:20:14;7.90;99.90
1453;DHT22;720;47.738;7.998;2022-11-12T07:22:39;8.00;99.90
1453;DHT22;720;47.738;7.998;2022-11-12T07:25:05;8.10;99.90
1453;DHT22;720;47.738;7.998;2022-11-12T07:27:31;8.30;99.90
1453;DHT22;720;47.738;7.998;2022-11-12T07:29:57;8.40;99.90
1453;DHT22;720;47.738;7.998;2022-11-12T07:32:22;8.50;99.90
1453;DHT22;720;47.738;7.998;2022-11-12T07:34:48;8.70;99.90
1453;DHT22;720;47.738;7.998;2022-11-12T07:37:14;8.80;99.90
1453;DHT22;720;47.738;7.998;2022-11-12T07:39:40;9.10;99.90
1453;DHT22;720;47.738;7.998;2022-11-12T07:42:06;9.60;99.90
1453;DHT22;720;47.738;7.998;2022-11-12T07:44:31;10.10;99.90
1453;DHT22;720;47.738;7.998;2022-11-12T07:46:57;10.40;99.90
1453;DHT22;720;47.738;7.998;2022-11-12T07:49:23;10.70;99.90
1453;DHT22;720;47.738;7.998;2022-11-12T07:51:48;10.90;99.90
1453;DHT22;720;47.738;7.998;2022-11-12T07:54:14;11.00;99.90
1453;DHT22;720;47.738;7.998;2022-11-12T07:56:40;11.10;99.90
1453;DHT22;720;47.738;7.998;2022-11-12T07:59:05;11.40;99.90
1453;DHT22;720;47.738;7.998;2022-11-12T08:01:34;11.40;99.70
1453;DHT22;720;47.738;7.998;2022-11-12T08:04:02;11.80;99.70
1453;DHT22;720;47.738;7.998;2022-11-12T08:06:28;12.20;99.90
1453;DHT22;720;47.738;7.998;2022-11-12T08:08:56;12.60;99.70
1453;DHT22;720;47.738;7.998;2022-11-12T08:11:22;12.90;97.60
1453;DHT22;720;47.738;7.998;2022-11-12T08:13:49;13.10;98.30
1453;DHT22;720;47.738;7.998;2022-11-12T08:16:15;13.40;98.90
1453;DHT22;720;47.738;7.998;2022-11-12T08:18:41;13.80;98.40
1453;DHT22;720;47.738;7.998;2022-11-12T08:21:10;14.10;97.20
1453;DHT22;720;47.738;7.998;2022-11-12T08:23:36;14.40;95.90
1453;DHT22;720;47.738;7.998;2022-11-12T08:26:04;14.60;95.50
1453;DHT22;720;47.738;7.998;2022-11-12T08:28:32;15.10;97.60
1453;DHT22;720;47.738;7.998;2022-11-12T08:31:02;15.00;94.10
1453;DHT22;720;47.738;7.998;2022-11-12T08:33:29;15.30;93.70
1453;DHT22;720;47.738;7.998;2022-11-12T08:35:55;15.40;93.00
1453;DHT22;720;47.738;7.998;2022-11-12T08:38:21;15.50;92.30
1453;DHT22;720;47.738;7.998;2022-11-12T08:40:47;15.40;91.40
1453;DHT22;720;47.738;7.998;2022-11-12T08:43:12;15.50;90.80
1453;DHT22;720;47.738;7.998;2022-11-12T08:45:40;15.70;90.80
1453;DHT22;720;47.738;7.998;2022-11-12T08:48:11;15.80;90.10
1453;DHT22;720;47.738;7.998;2022-11-12T08:50:38;16.00;90.10
1453;DHT22;720;47.738;7.998;2022-11-12T08:53:10;16.40;90.60
1453;DHT22;720;47.738;7.998;2022-11-12T08:55:36;16.90;89.20
1453;DHT22;720;47.738;7.998;2022-11-12T08:58:03;17.50;87.90
1453;DHT22;720;47.738;7.998;2022-11-12T09:00:30;18.00;85.60
1453;DHT22;720;47.738;7.998;2022-11-12T09:02:59;18.40;83.40
1453;DHT22;720;47.738;7.998;2022-11-12T09:05:25;18.70;81.50
1453;DHT22;720;47.738;7.998;2022-11-12T09:08:02;19.00;80.20
1453;DHT22;720;47.738;7.998;2022-11-12T09:10:29;19.30;79.30
1453;DHT22;720;47.738;7.998;2022-11-12T09:12:55;19.40;79.00
1453;DHT22;720;47.738;7.998;2022-11-12T09:15:21;19.40;78.50
1453;DHT22;720;47.738;7.998;2022-11-12T09:18:03;19.30;79.10
1453;DHT22;720;47.738;7.998;2022-11-12T09:20:29;19.20;79.00
1453;DHT22;720;47.738;7.998;2022-11-12T09:23:04;19.20;79.90
1453;DHT22;720;47.738;7.998;2022-11-12T09:25:30;19.40;87.60
1453;DHT22;720;47.738;7.998;2022-11-12T09:27:56;19.70;80.00
1453;DHT22;720;47.738;7.998;2022-11-12T09:30:22;19.90;79.60
1453;DHT22;720;47.738;7.998;2022-11-12T09:32:48;20.00;78.60
1453;DHT22;720;47.738;7.998;2022-11-12T09:35:13;19.90;77.60
1453;DHT22;720;47.738;7.998;2022-11-12T09:37:39;19.70;77.30
1453;DHT22;720;47.738;7.998;2022-11-12T09:40:08;19.40;76.70
1453;DHT22;720;47.738;7.998;2022-11-12T09:42:35;19.20;77.70
1453;DHT22;720;47.738;7.998;2022-11-12T09:45:16;19.00;79.00
1453;DHT22;720;47.738;7.998;2022-11-12T09:47:50;19.00;80.20
1453;DHT22;720;47.738;7.998;2022-11-12T09:50:27;19.10;80.50
1453;DHT22;720;47.738;7.998;2022-11-12T09:53:06;19.40;80.30
1453;DHT22;720;47.738;7.998;2022-11-12T09:55:37;19.90;80.10
1453;DHT22;720;47.738;7.998;2022-11-12T09:58:14;20.40;80.70
1453;DHT22;720;47.738;7.998;2022-11-12T10:01:08;21.00;76.30
1453;DHT22;720;47.738;7.998;2022-11-12T10:03:43;21.50;76.20
1453;DHT22;720;47.738;7.998;2022-11-12T10:06:17;21.90;76.10
1453;DHT22;720;47.738;7.998;2022-11-12T10:17:00;22.70;72.50
1453;DHT22;720;47.738;7.998;2022-11-12T10:19:49;22.60;71.90
1453;DHT22;720;47.738;7.998;2022-11-12T10:24:47;22.40;72.40
1453;DHT22;720;47.738;7.998;2022-11-12T10:27:26;22.20;71.00
1453;DHT22;720;47.738;7.998;2022-11-12T10:30:01;22.00;71.90
1453;DHT22;720;47.738;7.998;2022-11-12T10:32:28;21.80;73.00
1453;DHT22;720;47.738;7.998;2022-11-12T10:34:53;21.50;73.40
1453;DHT22;720;47.738;7.998;2022-11-12T10:37:30;21.20;74.20
1453;DHT22;720;47.738;7.998;2022-11-12T10:43:04;21.00;75.50
1453;DHT22;720;47.738;7.998;2022-11-12T10:45:30;21.10;76.60
1453;DHT22;720;47.738;7.998;2022-11-12T10:47:57;21.00;75.70
1453;DHT22;720;47.738;7.998;2022-11-12T10:50:41;21.00;75.80
1453;DHT22;720;47.738;7.998;2022-11-12T10:53:10;20.90;75.10
1453;DHT22;720;47.738;7.998;2022-11-12T10:55:38;20.60;77.90
1453;DHT22;720;47.738;7.998;2022-11-12T10:58:18;20.00;91.20
1453;DHT22;720;47.738;7.998;2022-11-12T11:01:00;20.00;77.60
1453;DHT22;720;47.738;7.998;2022-11-12T11:03:35;19.80;76.90
1453;DHT22;720;47.738;7.998;2022-11-12T11:06:06;19.70;78.80
1453;DHT22;720;47.738;7.998;2022-11-12T11:08:43;19.40;76.90
1453;DHT22;720;47.738;7.998;2022-11-12T11:13:41;19.10;75.20
1453;DHT22;720;47.738;7.998;2022-11-12T11:16:18;19.00;75.70
1453;DHT22;720;47.738;7.998;2022-11-12T11:18:54;18.90;77.60
1453;DHT22;720;47.738;7.998;2022-11-12T11:40:30;18.90;77.80
1453;DHT22;720;47.738;7.998;2022-11-12T11:43:33;18.80;75.30
1453;DHT22;720;47.738;7.998;2022-11-12T11:52:01;18.70;72.60
1453;DHT22;720;47.738;7.998;2022-11-12T11:57:29;18.60;72.70
1453;DHT22;720;47.738;7.998;2022-11-12T12:00:18;18.70;74.80
1453;DHT22;720;47.738;7.998;2022-11-12T12:05:35;18.60;74.60
1453;DHT22;720;47.738;7.998;2022-11-12T12:08:32;18.70;74.20
1453;DHT22;720;47.738;7.998;2022-11-12T12:14:09;18.90;73.40
1453;DHT22;720;47.738;7.998;2022-11-12T12:16:47;18.90;71.40
1453;DHT22;720;47.738;7.998;2022-11-12T12:22:16;18.70;76.00
1453;DHT22;720;47.738;7.998;2022-11-12T12:24:46;18.70;75.60
1453;DHT22;720;47.738;7.998;2022-11-12T12:27:19;18.60;72.70
1453;DHT22;720;47.738;7.998;2022-11-12T12:29:49;18.60;71.60
1453;DHT22;720;47.738;7.998;2022-11-12T12:39:07;18.30;72.70
1453;DHT22;720;47.738;7.998;2022-11-12T12:41:21;18.30;72.60
1453;DHT22;720;47.738;7.998;2022-11-12T12:43:56;18.20;71.90
1453;DHT22;720;47.738;7.998;2022-11-12T12:46:26;18.10;73.00
1453;DHT22;720;47.738;7.998;2022-11-12T12:48:54;18.10;75.30
1453;DHT22;720;47.738;7.998;2022-11-12T12:51:21;18.00;76.20
1453;DHT22;720;47.738;7.998;2022-11-12T12:53:47;18.00;78.80
1453;DHT22;720;47.738;7.998;2022-11-12T12:58:46;17.90;79.60
1453;DHT22;720;47.738;7.998;2022-11-12T13:03:58;17.90;79.00
1453;DHT22;720;47.738;7.998;2022-11-12T13:09:06;17.60;80.50
1453;DHT22;720;47.738;7.998;2022-11-12T13:11:49;17.50;78.00
1453;DHT22;720;47.738;7.998;2022-11-12T13:37:53;17.10;80.20
1453;DHT22;720;47.738;7.998;2022-11-12T13:43:43;17.00;82.30
1453;DHT22;720;47.738;7.998;2022-11-12T13:48:43;17.00;83.70
1453;DHT22;720;47.738;7.998;2022-11-12T13:53:42;17.10;87.90
1453;DHT22;720;47.738;7.998;2022-11-12T13:56:10;17.10;88.70
1453;DHT22;720;47.738;7.998;2022-11-12T13:58:36;17.00;89.10
1453;DHT22;720;47.738;7.998;2022-11-12T14:01:05;16.90;89.00
1453;DHT22;720;47.738;7.998;2022-11-12T14:03:51;16.90;89.00
1453;DHT22;720;47.738;7.998;2022-11-12T14:06:42;16.90;90.20
1453;DHT22;720;47.738;7.998;2022-11-12T14:22:44;16.60;89.80
1453;DHT22;720;47.738;7.998;2022-11-12T14:25:20;16.50;90.00
1453;DHT22;720;47.738;7.998;2022-11-12T14:27:54;16.50;90.10
1453;DHT22;720;47.738;7.998;2022-11-12T14:30:23;16.40;90.40
1453;DHT22;720;47.738;7.998;2022-11-12T14:32:52;16.40;90.80
1453;DHT22;720;47.738;7.998;2022-11-12T14:37:54;16.20;90.80
1453;DHT22;720;47.738;7.998;2022-11-12T14:40:23;16.20;91.00
1453;DHT22;720;47.738;7.998;2022-11-12T14:42:50;16.10;91.00
1453;DHT22;720;47.738;7.998;2022-11-12T14:45:17;16.10;91.00
1453;DHT22;720;47.738;7.998;2022-11-12T14:47:45;15.90;91.20
1453;DHT22;720;47.738;7.998;2022-11-12T14:50:19;15.90;91.70
1453;DHT22;720;47.738;7.998;2022-11-12T14:52:47;15.90;92.00
1453;DHT22;720;47.738;7.998;2022-11-12T14:55:26;15.80;92.00
1453;DHT22;720;47.738;7.998;2022-11-12T14:57:52;15.70;92.00
1453;DHT22;720;47.738;7.998;2022-11-12T15:02:55;15.50;92.20
1453;DHT22;720;47.738;7.998;2022-11-12T15:05:21;15.40;92.40
1453;DHT22;720;47.738;7.998;2022-11-12T15:07:58;15.40;92.50
1453;DHT22;720;47.738;7.998;2022-11-12T15:13:18;15.20;92.70
1453;DHT22;720;47.738;7.998;2022-11-12T15:18:25;15.00;93.10
1453;DHT22;720;47.738;7.998;2022-11-12T15:21:24;15.00;93.70
1453;DHT22;720;47.738;7.998;2022-11-12T15:24:13;14.90;93.50
1453;DHT22;720;47.738;7.998;2022-11-12T15:26:43;14.70;93.70
1453;DHT22;720;47.738;7.998;2022-11-12T15:29:34;14.60;93.90
1453;DHT22;720;47.738;7.998;2022-11-12T15:34:49;14.50;94.00
1453;DHT22;720;47.738;7.998;2022-11-12T15:39:44;14.40;94.20
1453;DHT22;720;47.738;7.998;2022-11-12T15:42:37;14.30;94.40
1453;DHT22;720;47.738;7.998;2022-11-12T15:45:19;14.20;94.60
1453;DHT22;720;47.738;7.998;2022-11-12T15:47:45;14.20;94.90
1453;DHT22;720;47.738;7.998;2022-11-12T15:50:37;14.10;95.20
1453;DHT22;720;47.738;7.998;2022-11-12T15:53:03;14.00;95.40
1453;DHT22;720;47.738;7.998;2022-11-12T15:55:30;14.00;95.60
1453;DHT22;720;47.738;7.998;2022-11-12T15:57:56;13.90;95.80
1453;DHT22;720;47.738;7.998;2022-11-12T16:00:24;13.80;96.00
1453;DHT22;720;47.738;7.998;2022-11-12T16:05:27;13.60;96.30
1453;DHT22;720;47.738;7.998;2022-11-12T16:07:53;13.60;96.50
1453;DHT22;720;47.738;7.998;2022-11-12T16:10:18;13.50;96.70
1453;DHT22;720;47.738;7.998;2022-11-12T16:12:45;13.40;96.80
1453;DHT22;720;47.738;7.998;2022-11-12T16:15:19;13.40;96.90
1453;DHT22;720;47.738;7.998;2022-11-12T16:17:48;13.30;97.00
1453;DHT22;720;47.738;7.998;2022-11-12T16:20:26;13.20;97.20
1453;DHT22;720;47.738;7.998;2022-11-12T16:22:52;13.10;97.20
1453;DHT22;720;47.738;7.998;2022-11-12T16:25:19;13.00;97.30
1453;DHT22;720;47.738;7.998;2022-11-12T16:27:45;12.90;97.50
1453;DHT22;720;47.738;7.998;2022-11-12T16:30:23;12.70;97.60
1453;DHT22;720;47.738;7.998;2022-11-12T16:32:49;12.60;98.00
1453;DHT22;720;47.738;7.998;2022-11-12T16:35:15;12.60;98.10
1453;DHT22;720;47.738;7.998;2022-11-12T16:37:42;12.60;99.90
1453;DHT22;720;47.738;7.998;2022-11-12T16:40:16;12.90;99.70
1453;DHT22;720;47.738;7.998;2022-11-12T16:42:42;13.10;99.50
1453;DHT22;720;47.738;7.998;2022-11-12T16:45:14;13.30;98.10
1453;DHT22;720;47.738;7.998;2022-11-12T16:47:53;13.30;96.90
1453;DHT22;720;47.738;7.998;2022-11-12T16:50:25;13.10;96.70
1453;DHT22;720;47.738;7.998;2022-11-12T16:52:51;12.90;97.00
1453;DHT22;720;47.738;7.998;2022-11-12T16:55:20;12.80;97.20
1453;DHT22;720;47.738;7.998;2022-11-12T16:57:46;12.70;97.30
1453;DHT22;720;47.738;7.998;2022-11-12T17:00:14;12.50;97.40
1453;DHT22;720;47.738;7.998;2022-11-12T17:02:40;12.40;97.80
1453;DHT22;720;47.738;7.998;2022-11-12T17:05:19;12.20;98.30
1453;DHT22;720;47.738;7.998;2022-11-12T17:07:45;12.10;98.50
1453;DHT22;720;47.738;7.998;2022-11-12T17:10:11;12.10;98.60
1453;DHT22;720;47.738;7.998;2022-11-12T17:12:37;11.90;98.40
1453;DHT22;720;47.738;7.998;2022-11-12T17:15:04;11.90;98.60
1453;DHT22;720;47.738;7.998;2022-11-12T17:17:30;11.80;98.70
1453;DHT22;720;47.738;7.998;2022-11-12T17:19:55;11.90;98.90
1453;DHT22;720;47.738;7.998;2022-11-12T17:22:21;11.80;98.50
1453;DHT22;720;47.738;7.998;2022-11-12T17:24:47;11.70;98.70
1453;DHT22;720;47.738;7.998;2022-11-12T17:27:12;11.60;98.90
1453;DHT22;720;47.738;7.998;2022-11-12T17:29:38;11.50;98.90
1453;DHT22;720;47.738;7.998;2022-11-12T17:32:06;11.40;98.90
1453;DHT22;720;47.738;7.998;2022-11-12T17:34:33;11.30;99.30
1453;DHT22;720;47.738;7.998;2022-11-12T17:36:59;11.20;99.20
1453;DHT22;720;47.738;7.998;2022-11-12T17:39:26;11.20;99.10
1453;DHT22;720;47.738;7.998;2022-11-12T17:41:52;11.20;99.20
1453;DHT22;720;47.738;7.998;2022-11-12T17:44:19;11.10;99.20
1453;DHT22;720;47.738;7.998;2022-11-12T17:46:45;11.00;99.10
1453;DHT22;720;47.738;7.998;2022-11-12T17:49:12;11.00;98.90
1453;DHT22;720;47.738;7.998;2022-11-12T17:51:39;11.00;98.90
1453;DHT22;720;47.738;7.998;2022-11-12T17:54:06;10.90;99.00
1453;DHT22;720;47.738;7.998;2022-11-12T17:56:33;10.80;99.10
1453;DHT22;720;47.738;7.998;2022-11-12T17:59:00;10.80;99.20
1453;DHT22;720;47.738;7.998;2022-11-12T18:01:27;10.70;99.20
1453;DHT22;720;47.738;7.998;2022-11-12T18:03:54;10.60;99.50
1453;DHT22;720;47.738;7.998;2022-11-12T18:06:26;10.50;99.70
1453;DHT22;720;47.738;7.998;2022-11-12T18:09:04;10.50;99.70
1453;DHT22;720;47.738;7.998;2022-11-12T18:11:39;10.40;99.60
1453;DHT22;720;47.738;7.998;2022-11-12T18:14:06;10.30;99.70
1453;DHT22;720;47.738;7.998;2022-11-12T18:16:32;10.20;99.90
1453;DHT22;720;47.738;7.998;2022-11-12T18:18:58;10.10;99.90
1453;DHT22;720;47.738;7.998;2022-11-12T18:21:24;10.10;99.90
1453;DHT22;720;47.738;7.998;2022-11-12T18:23:50;10.00;99.90
1453;DHT22;720;47.738;7.998;2022-11-12T18:26:17;10.00;99.90
1453;DHT22;720;47.738;7.998;2022-11-12T18:28:44;10.00;99.90
1453;DHT22;720;47.738;7.998;2022-11-12T18:31:14;10.10;99.90
1453;DHT22;720;47.738;7.998;2022-11-12T18:33:40;10.10;99.90
1453;DHT22;720;47.738;7.998;2022-11-12T18:36:10;10.00;99.90
1453;DHT22;720;47.738;7.998;2022-11-12T18:38:36;10.00;99.90
1453;DHT22;720;47.738;7.998;2022-11-12T18:41:13;10.00;99.90
1453;DHT22;720;47.738;7.998;2022-11-12T18:43:39;9.90;99.90
1453;DHT22;720;47.738;7.998;2022-11-12T18:46:07;9.90;99.90
1453;DHT22;720;47.738;7.998;2022-11-12T18:48:34;9.90;99.90
1453;DHT22;720;47.738;7.998;2022-11-12T18:51:02;9.80;99.90